Terminal Aerodrome Forecast
Issued by NWS

Home | Current Version | Previous Version | Text Only | Print | Product List | Glossary On
Versions: 1 2 3 4 5 6 7 8 9 10 11 12 13 14 15 16 17 18 19 20 21 22 23 24 25 26 27
499
FTUS46 KMTR 272337
TAFSFO
TAF
KSFO 272337Z 2800/2906 26018KT P6SM FEW007 SCT012 BKN030
      TEMPO 2802/2805 26018G25KT P6SM FEW007 BKN012
     FM280500 27012KT P6SM OVC012
     FM280800 27010KT P6SM OVC008
     FM281100 26008KT P6SM OVC005
     FM281700 28010KT P6SM SCT014
     FM282000 29018G22KT P6SM FEW022
     FM290500 27012KT P6SM OVC015=

USA.gov is the U.S. government's official web portal to all federal, state and local government web resources and services.